createdAt,value
2022-10-17T00:00:09.629Z,18.54
2022-10-17T00:02:37.905Z,18.63
2022-10-17T00:05:05.177Z,18.63
2022-10-17T00:07:31.889Z,18.59
2022-10-17T00:09:58.404Z,18.52
2022-10-17T00:12:25.117Z,18.66
2022-10-17T00:14:51.723Z,18.68
2022-10-17T00:17:18.295Z,18.64
2022-10-17T00:19:47.619Z,18.60
2022-10-17T00:22:14.283Z,18.71
2022-10-17T00:24:40.829Z,18.50
2022-10-17T00:27:07.884Z,18.73
2022-10-17T00:29:34.861Z,18.70
2022-10-17T00:32:01.406Z,18.65
2022-10-17T00:34:29.889Z,18.74
2022-10-17T00:36:58.422Z,18.60
2022-10-17T00:39:25.072Z,18.71
2022-10-17T00:41:51.726Z,18.71
2022-10-17T00:44:58.745Z,18.73
2022-10-17T00:47:25.861Z,18.82
2022-10-17T00:49:52.652Z,18.95
2022-10-17T00:52:24.020Z,18.97
2022-10-17T00:54:56.069Z,18.91
2022-10-17T00:57:23.231Z,18.61
2022-10-17T00:59:55.856Z,18.78
2022-10-17T01:02:23.712Z,18.83
2022-10-17T01:04:52.520Z,19.04
2022-10-17T01:07:19.068Z,18.78
2022-10-17T01:09:47.521Z,18.95
2022-10-17T01:12:20.314Z,18.98
2022-10-17T01:14:58.061Z,18.84
2022-10-17T01:17:33.837Z,18.84
2022-10-17T01:20:34.019Z,18.92
2022-10-17T01:23:18.639Z,18.80
2022-10-17T01:25:56.696Z,18.83
2022-10-17T01:28:44.503Z,18.79
2022-10-17T01:31:15.250Z,18.77
2022-10-17T01:33:52.651Z,18.66
2022-10-17T01:36:32.440Z,18.87
2022-10-17T01:39:03.056Z,18.76
2022-10-17T01:41:38.453Z,18.71
2022-10-17T01:44:11.796Z,18.86
2022-10-17T01:46:41.198Z,18.85
2022-10-17T01:49:10.141Z,18.86
2022-10-17T01:51:41.139Z,18.82
2022-10-17T01:54:14.177Z,18.82
2022-10-17T01:56:42.659Z,18.84
2022-10-17T01:59:13.641Z,18.85
2022-10-17T02:01:42.418Z,18.90
2022-10-17T02:04:11.072Z,18.97
2022-10-17T02:06:38.358Z,18.91
2022-10-17T02:09:17.235Z,18.80
2022-10-17T02:11:48.177Z,18.90
2022-10-17T02:14:25.581Z,18.73
2022-10-17T02:17:05.233Z,18.94
2022-10-17T02:19:41.724Z,18.79
2022-10-17T02:22:18.497Z,18.99
2022-10-17T02:24:49.877Z,19.05
2022-10-17T02:27:24.482Z,18.85
2022-10-17T02:29:57.366Z,19.05
2022-10-17T02:32:35.166Z,18.85
2022-10-17T02:35:03.661Z,18.74
2022-10-17T02:37:32.285Z,18.77
2022-10-17T02:40:02.275Z,18.86
2022-10-17T02:42:30.048Z,18.74
2022-10-17T02:45:00.195Z,18.88
2022-10-17T02:47:32.086Z,18.87
2022-10-17T02:49:59.079Z,18.63
2022-10-17T02:52:31.681Z,18.89
2022-10-17T02:55:05.037Z,18.81
2022-10-17T02:57:36.605Z,18.86
2022-10-17T03:00:08.779Z,18.77
2022-10-17T03:02:44.373Z,18.89
2022-10-17T03:05:12.927Z,18.91
2022-10-17T03:07:39.789Z,18.82
2022-10-17T03:10:07.465Z,18.90
2022-10-17T03:12:34.047Z,18.88
2022-10-17T03:15:00.559Z,18.68
2022-10-17T03:17:27.068Z,18.58
2022-10-17T03:19:55.164Z,18.73
2022-10-17T03:22:21.666Z,18.73
2022-10-17T03:24:48.397Z,18.59
2022-10-17T03:27:15.007Z,18.71
2022-10-17T03:29:41.592Z,18.74
2022-10-17T03:32:08.097Z,18.62
2022-10-17T03:34:34.947Z,18.55
2022-10-17T03:37:03.108Z,18.74
2022-10-17T03:39:30.005Z,18.67
2022-10-17T03:41:56.609Z,18.66
2022-10-17T03:44:23.137Z,18.76
2022-10-17T03:46:49.803Z,18.58
2022-10-17T03:49:16.384Z,18.59
2022-10-17T03:51:42.986Z,18.82
2022-10-17T03:54:10.963Z,18.83
2022-10-17T03:56:37.771Z,18.79
2022-10-17T03:59:04.371Z,18.87
2022-10-17T04:01:31.414Z,18.72
2022-10-17T04:03:58.152Z,18.76
2022-10-17T04:06:24.841Z,18.59
2022-10-17T04:08:51.355Z,18.81
2022-10-17T04:11:22.687Z,18.72
2022-10-17T04:13:55.444Z,18.82
2022-10-17T04:16:22.743Z,18.79
2022-10-17T04:18:53.372Z,18.62
2022-10-17T04:21:20.020Z,18.62
2022-10-17T04:23:46.699Z,18.71
2022-10-17T04:26:13.208Z,18.74
2022-10-17T04:28:43.851Z,18.48
2022-10-17T04:31:14.060Z,18.79
2022-10-17T04:33:42.628Z,18.73
2022-10-17T04:36:12.244Z,18.64
2022-10-17T04:38:38.978Z,18.72
2022-10-17T04:41:07.280Z,18.75
2022-10-17T04:43:36.625Z,18.87
2022-10-17T04:46:08.536Z,18.72
2022-10-17T04:48:37.932Z,18.77
2022-10-17T04:51:07.945Z,18.90
2022-10-17T04:53:36.618Z,18.75
2022-10-17T04:56:08.945Z,18.82
2022-10-17T04:58:36.953Z,18.76
2022-10-17T05:01:11.514Z,18.79
2022-10-17T05:03:39.085Z,18.84
2022-10-17T05:06:08.811Z,18.87
2022-10-17T05:08:36.120Z,18.84
2022-10-17T05:11:03.292Z,18.75
2022-10-17T05:13:30.367Z,18.83
2022-10-17T05:16:00.173Z,18.79
2022-10-17T05:18:28.712Z,18.79
2022-10-17T05:20:55.794Z,18.94
2022-10-17T05:23:22.373Z,18.99
2022-10-17T05:25:55.450Z,19.06
2022-10-17T05:28:22.402Z,18.76
2022-10-17T05:30:56.898Z,18.94
2022-10-17T05:33:24.287Z,18.84
2022-10-17T05:35:52.905Z,19.00
2022-10-17T05:38:19.650Z,18.95
2022-10-17T05:40:48.092Z,18.96
2022-10-17T05:43:15.422Z,18.95
2022-10-17T05:45:42.446Z,19.05
2022-10-17T05:48:09.096Z,18.99
2022-10-17T05:50:36.016Z,19.05
2022-10-17T05:53:06.302Z,18.95
2022-10-17T05:55:33.117Z,18.98
2022-10-17T05:58:00.465Z,19.14
2022-10-17T06:00:30.395Z,18.98
2022-10-17T06:02:58.023Z,19.02
2022-10-17T06:05:25.684Z,18.99
2022-10-17T06:07:52.313Z,19.14
2022-10-17T06:10:20.393Z,18.88
2022-10-17T06:12:48.349Z,18.92
2022-10-17T06:15:14.961Z,18.83
2022-10-17T06:17:41.535Z,19.05
2022-10-17T06:20:09.913Z,19.08
2022-10-17T06:22:36.589Z,19.15
2022-10-17T06:25:04.930Z,19.35
2022-10-17T06:27:35.281Z,19.48
2022-10-17T06:30:02.903Z,19.44
2022-10-17T06:32:29.868Z,19.28
2022-10-17T06:34:56.678Z,19.55
2022-10-17T06:37:23.608Z,19.49
2022-10-17T06:39:50.590Z,19.45
2022-10-17T06:42:17.317Z,19.54
2022-10-17T06:44:46.855Z,19.58
2022-10-17T06:47:15.378Z,19.52
2022-10-17T06:49:44.411Z,19.72
2022-10-17T06:52:11.039Z,19.85
2022-10-17T06:54:38.025Z,19.91
2022-10-17T06:57:04.661Z,19.83
2022-10-17T06:59:32.812Z,20.12
2022-10-17T07:02:02.760Z,20.09
2022-10-17T07:04:29.663Z,20.33
2022-10-17T07:06:56.433Z,20.31
2022-10-17T07:09:23.236Z,20.33
2022-10-17T07:11:50.101Z,20.40
2022-10-17T07:14:16.798Z,20.57
2022-10-17T07:16:43.741Z,20.88
2022-10-17T07:19:11.841Z,20.95
2022-10-17T07:21:39.356Z,21.28
2022-10-17T07:24:06.546Z,21.43
2022-10-17T07:26:33.482Z,21.37
2022-10-17T07:29:00.627Z,21.46
2022-10-17T07:31:27.337Z,21.27
2022-10-17T07:33:53.998Z,21.41
2022-10-17T07:36:23.688Z,21.32
2022-10-17T07:38:50.274Z,21.45
2022-10-17T07:41:19.478Z,21.31
2022-10-17T07:43:48.913Z,21.52
2022-10-17T07:46:15.832Z,21.49
2022-10-17T07:48:42.618Z,21.53
2022-10-17T07:51:09.736Z,21.75
2022-10-17T07:53:39.800Z,21.68
2022-10-17T07:56:09.549Z,22.00
2022-10-17T07:58:37.453Z,22.14
2022-10-17T08:01:07.443Z,22.29
2022-10-17T08:03:36.296Z,22.21
2022-10-17T08:06:03.583Z,22.34
2022-10-17T08:08:30.581Z,22.50
2022-10-17T08:11:02.857Z,22.63
2022-10-17T08:13:29.413Z,22.89
2022-10-17T08:16:00.214Z,22.83
2022-10-17T08:18:26.765Z,22.92
2022-10-17T08:20:56.756Z,23.03
2022-10-17T08:23:26.283Z,23.20
2022-10-17T08:25:53.934Z,23.21
2022-10-17T08:28:22.197Z,23.64
2022-10-17T08:30:48.880Z,23.75
2022-10-17T08:33:15.738Z,23.85
2022-10-17T08:35:43.119Z,24.28
2022-10-17T08:38:12.303Z,24.57
2022-10-17T08:40:40.364Z,24.63
2022-10-17T08:43:30.338Z,24.01
2022-10-17T08:46:02.019Z,24.24
2022-10-17T08:48:32.822Z,24.03
2022-10-17T08:51:03.156Z,23.71
2022-10-17T08:53:33.685Z,23.93
2022-10-17T08:56:07.209Z,23.73
2022-10-17T08:58:38.756Z,23.25
2022-10-17T09:01:13.777Z,23.07
2022-10-17T09:04:01.675Z,23.27
2022-10-17T09:06:33.101Z,23.41
2022-10-17T09:09:23.010Z,23.75
2022-10-17T09:12:02.693Z,23.91
2022-10-17T09:15:03.332Z,24.45
2022-10-17T09:17:39.530Z,24.48
2022-10-17T09:20:11.634Z,24.18
2022-10-17T09:22:44.773Z,24.43
2022-10-17T09:25:14.172Z,24.75
2022-10-17T09:27:44.541Z,24.88
2022-10-17T09:30:44.651Z,24.98
2022-10-17T09:33:23.341Z,25.14
2022-10-17T09:36:02.550Z,24.91
2022-10-17T09:38:39.703Z,25.11
2022-10-17T09:41:39.377Z,25.17
2022-10-17T09:44:13.813Z,25.31
2022-10-17T09:46:51.886Z,24.96
2022-10-17T09:49:26.096Z,24.94
2022-10-17T09:51:54.014Z,24.48
2022-10-17T09:54:25.004Z,23.86
2022-10-17T09:57:02.265Z,23.76
2022-10-17T09:59:32.321Z,23.86
2022-10-17T10:02:14.854Z,23.77
2022-10-17T10:05:03.659Z,23.62
2022-10-17T10:07:33.197Z,23.37
2022-10-17T10:10:00.703Z,23.59
2022-10-17T10:12:29.217Z,23.82
2022-10-17T10:14:57.132Z,23.54
2022-10-17T10:17:36.154Z,23.67
2022-10-17T10:20:24.789Z,23.98
2022-10-17T10:23:07.072Z,23.87
2022-10-17T10:25:35.489Z,24.00
2022-10-17T10:28:11.283Z,24.13
2022-10-17T10:30:39.940Z,23.94
2022-10-17T10:33:12.251Z,24.14
2022-10-17T10:35:39.405Z,24.18
2022-10-17T10:38:11.017Z,24.36
2022-10-17T10:40:45.949Z,24.57
2022-10-17T10:43:23.112Z,24.46
2022-10-17T10:45:51.815Z,24.68
2022-10-17T10:48:26.011Z,24.78
2022-10-17T10:50:57.946Z,24.71
2022-10-17T10:53:38.879Z,24.31
2022-10-17T10:56:12.741Z,24.57
2022-10-17T10:58:51.727Z,24.56
2022-10-17T11:01:26.936Z,24.68
2022-10-17T11:04:06.132Z,24.72
2022-10-17T11:06:38.137Z,24.60
2022-10-17T11:09:19.821Z,24.90
2022-10-17T11:11:53.699Z,25.11
2022-10-17T11:14:28.511Z,25.02
2022-10-17T11:17:03.279Z,24.78
2022-10-17T11:19:37.143Z,24.53
2022-10-17T11:22:14.628Z,24.23
2022-10-17T11:24:49.320Z,24.30
2022-10-17T11:27:17.365Z,24.31
2022-10-17T11:29:47.916Z,24.28
2022-10-17T11:32:22.023Z,24.71
2022-10-17T11:34:52.988Z,24.69
2022-10-17T11:37:23.564Z,24.91
2022-10-17T11:39:55.045Z,24.43
2022-10-17T11:42:26.292Z,24.30
2022-10-17T11:45:00.438Z,24.30
2022-10-17T11:47:36.295Z,24.33
2022-10-17T11:53:09.322Z,24.51
2022-10-17T11:55:37.055Z,24.53
2022-10-17T11:58:22.747Z,24.61
2022-10-17T12:00:57.044Z,24.39
2022-10-17T12:03:45.508Z,24.46
2022-10-17T12:06:22.923Z,24.39
2022-10-17T12:08:58.622Z,24.66
2022-10-17T12:11:36.234Z,24.40
2022-10-17T12:14:05.880Z,24.49
2022-10-17T12:16:45.092Z,24.58
2022-10-17T12:19:23.800Z,24.67
2022-10-17T12:21:57.505Z,24.50
2022-10-17T12:24:34.844Z,24.59
2022-10-17T12:27:36.977Z,24.67
2022-10-17T12:30:14.303Z,24.59
2022-10-17T12:33:07.491Z,24.64
2022-10-17T12:35:36.548Z,24.91
2022-10-17T12:38:24.655Z,24.79
2022-10-17T12:41:02.221Z,24.52
2022-10-17T12:43:56.778Z,24.20
2022-10-17T12:46:58.002Z,24.14
2022-10-17T12:49:43.670Z,24.16
2022-10-17T12:55:20.749Z,24.14
2022-10-17T12:57:51.701Z,24.18
2022-10-17T13:00:23.821Z,24.14
2022-10-17T13:02:54.480Z,23.95
2022-10-17T13:05:27.691Z,23.95
2022-10-17T13:07:57.876Z,23.81
2022-10-17T13:10:29.949Z,23.70
2022-10-17T13:13:04.867Z,23.69
2022-10-17T13:15:32.529Z,23.83
2022-10-17T13:18:01.304Z,23.96
2022-10-17T13:20:31.718Z,23.99
2022-10-17T13:22:58.873Z,24.02
2022-10-17T13:25:27.949Z,23.92
2022-10-17T13:28:09.440Z,23.94
2022-10-17T13:30:36.699Z,23.93
2022-10-17T13:33:19.082Z,23.84
2022-10-17T13:35:59.850Z,23.76
2022-10-17T13:38:30.333Z,23.78
2022-10-17T13:41:16.870Z,23.70
2022-10-17T13:43:50.532Z,23.68
2022-10-17T13:46:37.346Z,23.66
2022-10-17T13:49:11.620Z,23.56
2022-10-17T13:51:43.466Z,23.67
2022-10-17T13:54:18.545Z,23.58
2022-10-17T13:56:46.816Z,23.60
2022-10-17T13:59:22.908Z,23.62
2022-10-17T14:01:49.964Z,23.67
2022-10-17T14:04:20.253Z,23.64
2022-10-17T14:06:51.204Z,23.60
2022-10-17T14:09:25.208Z,23.79
2022-10-17T14:12:02.238Z,23.80
2022-10-17T14:14:32.162Z,23.97
2022-10-17T14:17:14.529Z,23.89
2022-10-17T14:19:41.525Z,23.93
2022-10-17T14:22:25.046Z,23.95
2022-10-17T14:24:51.928Z,23.84
2022-10-17T14:27:31.943Z,23.75
2022-10-17T14:30:00.917Z,23.77
2022-10-17T14:32:29.412Z,23.74
2022-10-17T14:35:10.588Z,23.60
2022-10-17T14:37:47.203Z,23.69
2022-10-17T14:40:23.844Z,23.67
2022-10-17T14:42:56.633Z,23.67
2022-10-17T14:45:27.310Z,23.60
2022-10-17T14:47:57.767Z,23.57
2022-10-17T14:50:26.150Z,23.56
2022-10-17T14:53:00.828Z,23.54
2022-10-17T14:55:29.406Z,23.32
2022-10-17T14:57:58.331Z,23.60
2022-10-17T15:00:25.871Z,23.40
2022-10-17T15:02:54.957Z,23.48
2022-10-17T15:05:22.350Z,23.50
2022-10-17T15:07:49.427Z,23.50
2022-10-17T15:10:25.308Z,23.58
2022-10-17T15:12:57.467Z,23.52
2022-10-17T15:15:28.786Z,23.36
2022-10-17T15:17:55.687Z,23.34
2022-10-17T15:20:23.945Z,23.31
2022-10-17T15:22:50.823Z,23.08
2022-10-17T15:25:18.250Z,23.13
2022-10-17T15:27:45.679Z,23.07
2022-10-17T15:30:21.460Z,23.03
2022-10-17T15:32:50.682Z,22.98
2022-10-17T15:35:18.219Z,22.93
2022-10-17T15:37:45.363Z,22.81
2022-10-17T15:40:16.007Z,22.65
2022-10-17T15:42:42.556Z,22.61
2022-10-17T15:45:10.437Z,22.52
2022-10-17T15:47:37.754Z,22.50
2022-10-17T15:50:07.040Z,22.36
2022-10-17T15:52:33.904Z,22.19
2022-10-17T15:55:04.158Z,22.15
2022-10-17T15:57:36.178Z,22.19
2022-10-17T16:00:04.688Z,22.07
2022-10-17T16:02:32.412Z,22.09
2022-10-17T16:04:59.368Z,22.06
2022-10-17T16:07:27.503Z,22.04
2022-10-17T16:09:54.253Z,21.99
2022-10-17T16:12:27.714Z,21.94
2022-10-17T16:14:55.638Z,21.88
2022-10-17T16:17:23.859Z,21.86
2022-10-17T16:19:50.896Z,21.87
2022-10-17T16:22:23.697Z,21.80
2022-10-17T16:24:51.738Z,21.75
2022-10-17T16:27:18.355Z,21.77
2022-10-17T16:29:45.016Z,21.77
2022-10-17T16:32:12.057Z,21.67
2022-10-17T16:34:38.553Z,21.66
2022-10-17T16:37:05.246Z,21.60
2022-10-17T16:39:32.826Z,21.54
2022-10-17T16:42:00.780Z,21.28
2022-10-17T16:44:28.080Z,21.20
2022-10-17T16:46:55.294Z,21.35
2022-10-17T16:49:22.153Z,21.36
2022-10-17T16:51:48.736Z,21.31
2022-10-17T16:54:15.351Z,21.34
2022-10-17T16:56:41.886Z,21.22
2022-10-17T16:59:11.213Z,21.14
2022-10-17T17:01:39.222Z,21.11
2022-10-17T17:04:06.044Z,21.23
2022-10-17T17:06:33.220Z,21.17
2022-10-17T17:08:59.976Z,21.17
2022-10-17T17:11:28.603Z,21.10
2022-10-17T17:13:56.291Z,21.09
2022-10-17T17:16:26.406Z,20.94
2022-10-17T17:18:56.215Z,20.90
2022-10-17T17:21:23.246Z,20.98
2022-10-17T17:23:49.944Z,20.94
2022-10-17T17:26:18.596Z,20.94
2022-10-17T17:28:45.681Z,21.03
2022-10-17T17:31:14.190Z,21.04
2022-10-17T17:33:50.760Z,21.05
2022-10-17T17:36:19.402Z,21.09
2022-10-17T17:38:49.126Z,20.98
2022-10-17T17:41:17.352Z,20.97
2022-10-17T17:43:44.941Z,20.98
2022-10-17T17:46:14.838Z,20.95
2022-10-17T17:48:44.049Z,20.85
2022-10-17T17:51:14.376Z,20.79
2022-10-17T17:53:42.879Z,20.93
2022-10-17T17:56:13.164Z,20.96
2022-10-17T17:58:40.637Z,20.90
2022-10-17T18:01:12.223Z,20.87
2022-10-17T18:03:44.625Z,20.83
2022-10-17T18:06:11.761Z,20.90
2022-10-17T18:08:39.817Z,20.83
2022-10-17T18:11:06.425Z,20.86
2022-10-17T18:13:32.965Z,20.79
2022-10-17T18:16:02.071Z,20.73
2022-10-17T18:18:30.128Z,20.69
2022-10-17T18:21:02.400Z,20.72
2022-10-17T18:23:28.952Z,20.75
2022-10-17T18:26:00.514Z,20.67
2022-10-17T18:28:27.330Z,20.61
2022-10-17T18:30:54.372Z,20.61
2022-10-17T18:33:21.242Z,20.57
2022-10-17T18:35:47.912Z,20.57
2022-10-17T18:38:16.155Z,20.62
2022-10-17T18:40:45.032Z,20.59
2022-10-17T18:43:14.187Z,20.63
2022-10-17T18:46:23.566Z,20.43
2022-10-17T18:48:50.676Z,20.56
2022-10-17T18:51:19.272Z,20.47
2022-10-17T18:53:49.072Z,20.40
2022-10-17T18:56:17.178Z,20.52
2022-10-17T18:58:44.319Z,20.38
2022-10-17T19:01:14.880Z,20.37
2022-10-17T19:03:42.876Z,20.33
2022-10-17T19:06:11.328Z,20.24
2022-10-17T19:08:39.399Z,20.18
2022-10-17T19:11:09.363Z,20.24
2022-10-17T19:13:36.976Z,20.32
2022-10-17T19:16:05.751Z,20.30
2022-10-17T19:18:33.748Z,20.21
2022-10-17T19:21:02.147Z,20.18
2022-10-17T19:23:29.152Z,20.13
2022-10-17T19:25:58.369Z,20.11
2022-10-17T19:28:28.398Z,20.17
2022-10-17T19:30:55.527Z,20.08
2022-10-17T19:33:22.306Z,20.13
2022-10-17T19:35:56.127Z,20.09
2022-10-17T19:38:25.571Z,20.08
2022-10-17T19:40:52.959Z,20.02
2022-10-17T19:43:20.757Z,20.00
2022-10-17T19:45:55.949Z,20.04
2022-10-17T19:48:25.007Z,20.01
2022-10-17T19:50:52.814Z,19.94
2022-10-17T19:53:19.719Z,19.90
2022-10-17T19:55:46.276Z,19.90
2022-10-17T19:58:12.969Z,19.85
2022-10-17T20:00:46.335Z,19.78
2022-10-17T20:03:14.583Z,19.94
2022-10-17T20:05:41.134Z,19.88
2022-10-17T20:08:07.889Z,19.81
2022-10-17T20:10:34.596Z,19.96
2022-10-17T20:13:04.614Z,19.92
2022-10-17T20:15:31.182Z,19.88
2022-10-17T20:17:58.401Z,19.89
2022-10-17T20:20:26.975Z,19.83
2022-10-17T20:22:55.511Z,19.77
2022-10-17T20:25:22.564Z,19.73
2022-10-17T20:27:49.170Z,19.69
2022-10-17T20:30:16.044Z,19.66
2022-10-17T20:32:43.516Z,19.70
2022-10-17T20:35:10.230Z,19.61
2022-10-17T20:37:41.681Z,19.52
2022-10-17T20:40:33.619Z,19.42
2022-10-17T20:42:58.497Z,19.35
2022-10-17T20:45:37.604Z,19.34
2022-10-17T20:48:16.059Z,19.45
2022-10-17T20:50:43.823Z,19.35
2022-10-17T20:56:02.802Z,19.31
2022-10-17T20:58:29.458Z,19.30
2022-10-17T21:00:56.027Z,19.33
2022-10-17T21:03:22.557Z,19.28
2022-10-17T21:05:51.867Z,19.23
2022-10-17T21:08:19.985Z,19.23
2022-10-17T21:10:46.510Z,19.28
2022-10-17T21:13:13.447Z,19.24
2022-10-17T21:15:40.036Z,19.20
2022-10-17T21:18:07.102Z,19.22
2022-10-17T21:20:33.726Z,19.12
2022-10-17T21:23:00.352Z,19.13
2022-10-17T21:25:28.716Z,19.19
2022-10-17T21:27:55.316Z,19.16
2022-10-17T21:30:21.911Z,19.22
2022-10-17T21:32:52.537Z,19.17
2022-10-17T21:35:19.322Z,19.17
2022-10-17T21:37:46.052Z,19.17
2022-10-17T21:40:14.176Z,19.05
2022-10-17T21:42:42.196Z,19.20
2022-10-17T21:45:15.730Z,19.09
2022-10-17T21:48:11.209Z,19.15
2022-10-17T21:50:33.651Z,19.11
2022-10-17T21:53:00.194Z,19.17
2022-10-17T21:55:26.964Z,19.11
2022-10-17T21:57:54.946Z,19.07
2022-10-17T22:00:21.785Z,19.01
2022-10-17T22:02:48.407Z,18.98
2022-10-17T22:05:15.931Z,18.96
2022-10-17T22:07:42.519Z,18.96
2022-10-17T22:10:09.654Z,18.98
2022-10-17T22:12:36.529Z,19.05
2022-10-17T22:15:05.628Z,19.08
2022-10-17T22:17:32.823Z,19.11
2022-10-17T22:20:00.088Z,19.17
2022-10-17T22:22:26.625Z,19.14
2022-10-17T22:24:53.392Z,19.10
2022-10-17T22:27:20.467Z,19.06
2022-10-17T22:29:47.168Z,19.02
2022-10-17T22:32:19.983Z,19.01
2022-10-17T22:34:49.102Z,18.99
2022-10-17T22:37:18.294Z,19.02
2022-10-17T22:39:44.798Z,19.07
2022-10-17T22:42:12.738Z,19.07
2022-10-17T22:44:40.607Z,19.21
2022-10-17T22:47:07.409Z,19.22
2022-10-17T22:49:35.431Z,19.30
2022-10-17T22:52:03.536Z,19.29
2022-10-17T22:54:30.086Z,19.16
2022-10-17T22:56:56.691Z,19.17
2022-10-17T22:59:23.628Z,19.15
2022-10-17T23:01:50.341Z,19.21
2022-10-17T23:04:17.209Z,19.24
2022-10-17T23:06:45.624Z,19.19
2022-10-17T23:09:12.628Z,19.27
2022-10-17T23:11:39.266Z,19.31
2022-10-17T23:14:06.071Z,19.29
2022-10-17T23:16:32.612Z,19.29
2022-10-17T23:18:59.191Z,19.27
2022-10-17T23:21:26.128Z,19.33
2022-10-17T23:23:54.317Z,19.36
2022-10-17T23:26:20.822Z,19.31
2022-10-17T23:28:48.178Z,19.36
2022-10-17T23:31:16.250Z,19.33
2022-10-17T23:33:43.996Z,19.18
2022-10-17T23:36:12.031Z,19.16
2022-10-17T23:38:39.335Z,19.16
2022-10-17T23:41:09.563Z,19.25
2022-10-17T23:43:36.567Z,19.17
2022-10-17T23:46:04.762Z,19.21
2022-10-17T23:48:31.673Z,19.24
2022-10-17T23:50:58.789Z,19.22
2022-10-17T23:53:26.160Z,19.08
2022-10-17T23:55:52.941Z,19.20
2022-10-17T23:58:22.967Z,19.27
